Terminal Aerodrome Forecast
Issued by NWS

Home | Current Version | Previous Version | Text Only | Print | Product List | Glossary Off
Versions: 1 2 3 4 5 6 7 8 9 10 11 12 13 14 15 16 17 18 19 20 21 22

000
FTUS43 KGRB 311553 AAB
TAFMTW
TAF AMD
KMTW 311553Z 3116/0112 24008KT P6SM BKN015
     FM311900 19009KT P6SM SCT025
     FM010100 20003KT P6SM SKC
      TEMPO 0109/0112 3SM BR=

USA.gov is the U.S. government's official web portal to all federal, state and local government web resources and services.